createdAt,value
2022-07-27T00:02:12.610Z,99.90
2022-07-27T00:04:42.497Z,99.90
2022-07-27T00:07:12.072Z,99.90
2022-07-27T00:09:41.567Z,99.90
2022-07-27T00:12:11.083Z,99.90
2022-07-27T00:14:40.612Z,99.90
2022-07-27T00:17:10.075Z,99.90
2022-07-27T00:19:39.659Z,99.90
2022-07-27T00:22:09.483Z,99.90
2022-07-27T00:24:39.168Z,99.90
2022-07-27T00:27:08.726Z,99.90
2022-07-27T00:29:39.133Z,99.90
2022-07-27T00:32:12.585Z,99.90
2022-07-27T00:34:40.042Z,99.90
2022-07-27T00:37:09.676Z,99.90
2022-07-27T00:39:39.177Z,99.90
2022-07-27T00:42:08.719Z,99.90
2022-07-27T00:44:38.349Z,99.90
2022-07-27T00:47:07.983Z,99.90
2022-07-27T00:49:37.584Z,99.90
2022-07-27T00:52:08.671Z,99.90
2022-07-27T00:54:38.297Z,99.90
2022-07-27T00:57:09.477Z,99.90
2022-07-27T00:59:40.458Z,99.90
2022-07-27T01:02:12.215Z,99.90
2022-07-27T01:04:41.962Z,99.90
2022-07-27T01:07:13.898Z,99.90
2022-07-27T01:09:59.865Z,99.90
2022-07-27T01:12:32.681Z,99.90
2022-07-27T01:15:03.017Z,99.90
2022-07-27T01:17:33.997Z,99.90
2022-07-27T01:20:03.778Z,99.90
2022-07-27T01:22:32.508Z,99.90
2022-07-27T01:25:02.161Z,99.90
2022-07-27T01:27:31.796Z,99.90
2022-07-27T01:30:01.236Z,99.90
2022-07-27T01:32:30.750Z,99.90
2022-07-27T01:35:00.290Z,99.90
2022-07-27T01:37:29.734Z,99.90
2022-07-27T01:39:58.996Z,99.90
2022-07-27T01:42:27.597Z,99.90
2022-07-27T01:44:56.169Z,99.90
2022-07-27T01:47:26.479Z,99.90
2022-07-27T01:49:55.177Z,99.90
2022-07-27T01:52:23.741Z,99.90
2022-07-27T01:54:52.419Z,99.90
2022-07-27T01:57:21.058Z,99.90
2022-07-27T01:59:49.769Z,99.90
2022-07-27T02:02:18.459Z,99.90
2022-07-27T02:04:47.165Z,99.90
2022-07-27T02:07:15.900Z,99.90
2022-07-27T02:09:46.389Z,99.90
2022-07-27T02:12:33.063Z,99.90
2022-07-27T02:15:05.657Z,99.90
2022-07-27T02:17:36.212Z,99.90
2022-07-27T02:20:06.099Z,99.90
2022-07-27T02:22:35.740Z,99.90
2022-07-27T02:25:40.926Z,99.90
2022-07-27T02:28:10.551Z,99.90
2022-07-27T02:30:50.217Z,99.90
2022-07-27T02:33:19.985Z,99.90
2022-07-27T02:35:49.531Z,99.90
2022-07-27T02:38:18.601Z,99.90
2022-07-27T02:40:47.376Z,99.90
2022-07-27T02:43:16.056Z,99.90
2022-07-27T02:45:46.655Z,99.90
2022-07-27T02:48:15.132Z,99.90
2022-07-27T02:50:44.083Z,99.90
2022-07-27T02:53:12.866Z,99.90
2022-07-27T02:55:41.515Z,99.90
2022-07-27T02:58:10.324Z,99.90
2022-07-27T03:00:39.035Z,99.90
2022-07-27T03:03:07.639Z,99.90
2022-07-27T03:05:36.419Z,99.90
2022-07-27T03:08:05.176Z,99.90
2022-07-27T03:10:33.946Z,99.90
2022-07-27T03:13:03.103Z,99.90
2022-07-27T03:15:33.186Z,99.90
2022-07-27T03:18:02.144Z,99.90
2022-07-27T03:20:30.874Z,99.90
2022-07-27T03:22:59.630Z,99.90
2022-07-27T03:25:28.775Z,99.90
2022-07-27T03:28:03.569Z,99.90
2022-07-27T03:30:27.738Z,99.90
2022-07-27T03:32:56.334Z,99.90
2022-07-27T03:35:25.471Z,99.90
2022-07-27T03:37:54.104Z,99.90
2022-07-27T03:40:22.763Z,99.90
2022-07-27T03:42:51.347Z,99.90
2022-07-27T03:45:19.978Z,99.90
2022-07-27T03:47:48.573Z,99.90
2022-07-27T03:50:17.260Z,99.90
2022-07-27T03:52:45.968Z,99.90
2022-07-27T03:55:14.788Z,99.90
2022-07-27T03:57:43.429Z,99.90
2022-07-27T04:00:13.145Z,99.90
2022-07-27T04:02:42.300Z,99.90
2022-07-27T04:05:11.961Z,99.90
2022-07-27T04:07:41.691Z,99.90
2022-07-27T04:10:11.728Z,99.90
2022-07-27T04:12:43.187Z,99.90
2022-07-27T04:15:14.527Z,99.90
2022-07-27T04:17:55.266Z,99.90
2022-07-27T04:20:15.685Z,99.90
2022-07-27T04:22:45.174Z,99.90
2022-07-27T04:25:14.826Z,99.90
2022-07-27T04:27:44.336Z,99.90
2022-07-27T04:30:14.336Z,99.90
2022-07-27T04:32:43.912Z,99.90
2022-07-27T04:35:13.623Z,99.90
2022-07-27T04:37:58.460Z,99.90
2022-07-27T04:40:14.396Z,99.90
2022-07-27T04:42:49.348Z,99.90
2022-07-27T04:45:16.309Z,99.90
2022-07-27T04:47:45.721Z,99.90
2022-07-27T04:50:15.298Z,99.90
2022-07-27T04:52:46.832Z,99.90
2022-07-27T04:55:16.690Z,99.90
2022-07-27T04:57:46.246Z,99.90
2022-07-27T05:00:16.157Z,99.90
2022-07-27T05:02:45.595Z,99.90
2022-07-27T05:05:15.238Z,99.90
2022-07-27T05:07:44.828Z,99.90
2022-07-27T05:10:19.800Z,99.90
2022-07-27T05:12:45.988Z,99.90
2022-07-27T05:15:16.506Z,99.90
2022-07-27T05:17:46.071Z,99.90
2022-07-27T05:20:16.782Z,99.90
2022-07-27T05:22:46.390Z,99.90
2022-07-27T05:25:15.910Z,99.90
2022-07-27T05:27:54.571Z,99.90
2022-07-27T05:30:16.768Z,99.90
2022-07-27T05:32:46.467Z,99.90
2022-07-27T05:35:16.061Z,99.90
2022-07-27T05:37:46.555Z,99.90
2022-07-27T05:40:16.229Z,99.90
2022-07-27T05:42:45.930Z,99.90
2022-07-27T05:45:16.639Z,99.90
2022-07-27T05:47:46.137Z,99.90
2022-07-27T05:50:16.510Z,99.90
2022-07-27T05:52:46.288Z,99.90
2022-07-27T05:55:16.121Z,99.90
2022-07-27T05:57:45.884Z,99.90
2022-07-27T06:00:15.644Z,99.90
2022-07-27T06:02:45.173Z,99.90
2022-07-27T06:05:17.143Z,99.90
2022-07-27T06:08:03.823Z,99.90
2022-07-27T06:10:34.887Z,99.90
2022-07-27T06:13:09.173Z,99.90
2022-07-27T06:15:40.525Z,99.90
2022-07-27T06:18:11.818Z,99.90
2022-07-27T06:20:43.039Z,99.90
2022-07-27T06:23:12.632Z,99.90
2022-07-27T06:25:42.090Z,99.90
2022-07-27T06:28:11.534Z,99.90
2022-07-27T06:30:42.810Z,99.90
2022-07-27T06:33:12.591Z,99.90
2022-07-27T06:35:43.002Z,99.90
2022-07-27T06:38:13.721Z,99.90
2022-07-27T06:40:43.380Z,99.90
2022-07-27T06:43:12.889Z,99.90
2022-07-27T06:45:42.321Z,99.90
2022-07-27T06:48:11.980Z,99.90
2022-07-27T06:50:41.754Z,99.90
2022-07-27T06:53:11.403Z,99.90
2022-07-27T06:55:41.479Z,99.90
2022-07-27T06:58:12.694Z,99.90
2022-07-27T07:00:42.263Z,99.90
2022-07-27T07:03:12.324Z,99.90
2022-07-27T07:05:46.870Z,99.90
2022-07-27T07:08:16.510Z,99.90
2022-07-27T07:10:47.088Z,99.90
2022-07-27T07:13:17.212Z,99.90
2022-07-27T07:15:47.171Z,99.90
2022-07-27T07:18:16.741Z,99.90
2022-07-27T07:20:46.451Z,99.90
2022-07-27T07:23:16.026Z,99.90
2022-07-27T07:25:45.558Z,99.90
2022-07-27T07:28:15.161Z,99.90
2022-07-27T07:30:44.675Z,99.80
2022-07-27T07:33:14.205Z,99.90
2022-07-27T07:36:13.713Z,99.70
2022-07-27T07:38:15.507Z,99.90
2022-07-27T07:40:45.408Z,99.90
2022-07-27T07:43:16.166Z,99.20
2022-07-27T07:45:50.552Z,98.80
2022-07-27T07:48:16.882Z,98.90
2022-07-27T07:50:46.449Z,98.50
2022-07-27T07:53:17.560Z,98.20
2022-07-27T07:55:47.664Z,98.30
2022-07-27T08:00:20.938Z,97.10
2022-07-27T08:02:56.108Z,97.50
2022-07-27T08:05:27.104Z,97.80
2022-07-27T08:07:56.665Z,97.40
2022-07-27T08:10:28.037Z,97.10
2022-07-27T08:12:58.202Z,96.60
2022-07-27T08:15:31.555Z,96.10
2022-07-27T08:18:00.135Z,96.60
2022-07-27T08:20:30.083Z,96.30
2022-07-27T08:22:59.531Z,96.60
2022-07-27T08:25:29.625Z,97.30
2022-07-27T08:27:59.575Z,96.70
2022-07-27T08:30:29.163Z,95.80
2022-07-27T08:33:02.517Z,95.60
2022-07-27T08:35:34.057Z,95.40
2022-07-27T08:38:05.946Z,95.00
2022-07-27T08:40:40.583Z,95.00
2022-07-27T08:43:09.155Z,95.00
2022-07-27T08:45:40.647Z,95.20
2022-07-27T08:48:15.175Z,94.90
2022-07-27T08:50:44.757Z,94.70
2022-07-27T08:53:16.532Z,94.50
2022-07-27T08:55:48.094Z,94.80
2022-07-27T08:58:18.580Z,94.40
2022-07-27T09:00:52.610Z,93.80
2022-07-27T09:03:24.048Z,93.60
2022-07-27T09:05:57.838Z,94.30
2022-07-27T09:08:31.362Z,93.80
2022-07-27T09:11:03.752Z,93.60
2022-07-27T09:13:35.368Z,93.10
2022-07-27T09:16:20.430Z,92.70
2022-07-27T09:18:42.540Z,92.80
2022-07-27T09:21:18.142Z,92.90
2022-07-27T09:23:50.781Z,92.60
2022-07-27T09:26:34.061Z,92.30
2022-07-27T09:28:59.833Z,92.10
2022-07-27T09:31:29.594Z,92.50
2022-07-27T09:34:02.190Z,93.00
2022-07-27T09:36:32.407Z,92.60
2022-07-27T09:39:07.008Z,92.30
2022-07-27T09:41:45.729Z,92.50
2022-07-27T09:44:33.036Z,91.30
2022-07-27T09:46:49.087Z,92.20
2022-07-27T09:49:33.201Z,91.90
2022-07-27T09:52:05.104Z,93.30
2022-07-27T09:54:47.500Z,92.20
2022-07-27T09:57:18.613Z,94.10
2022-07-27T09:59:48.290Z,93.40
2022-07-27T10:02:17.925Z,91.50
2022-07-27T10:04:48.450Z,89.70
2022-07-27T10:07:19.514Z,90.20
2022-07-27T10:09:49.323Z,90.50
2022-07-27T10:12:19.012Z,91.60
2022-07-27T10:14:50.354Z,92.80
2022-07-27T10:17:20.107Z,91.40
2022-07-27T10:19:50.907Z,90.80
2022-07-27T10:22:48.539Z,90.00
2022-07-27T10:25:18.310Z,90.70
2022-07-27T10:27:49.653Z,90.20
2022-07-27T10:30:27.570Z,91.00
2022-07-27T10:32:50.540Z,90.90
2022-07-27T10:35:36.519Z,90.10
2022-07-27T10:38:18.480Z,87.20
2022-07-27T10:40:49.128Z,88.60
2022-07-27T10:43:23.287Z,86.60
2022-07-27T10:46:01.350Z,87.60
2022-07-27T10:48:48.307Z,86.90
2022-07-27T10:51:16.339Z,86.60
2022-07-27T10:54:11.550Z,85.60
2022-07-27T10:56:20.969Z,85.60
2022-07-27T10:58:50.411Z,86.60
2022-07-27T11:01:22.153Z,85.90
2022-07-27T11:03:53.650Z,86.90
2022-07-27T11:07:00.270Z,88.10
2022-07-27T11:09:52.546Z,86.20
2022-07-27T11:11:34.649Z,85.80
2022-07-27T11:14:04.403Z,85.50
2022-07-27T11:16:43.088Z,87.10
2022-07-27T11:19:07.647Z,86.40
2022-07-27T11:21:41.453Z,85.90
2022-07-27T11:24:17.697Z,84.00
2022-07-27T11:26:52.852Z,85.10
2022-07-27T11:29:25.066Z,84.80
2022-07-27T11:31:58.727Z,84.20
2022-07-27T11:34:30.544Z,84.40
2022-07-27T11:37:02.407Z,84.70
2022-07-27T11:40:00.080Z,85.00
2022-07-27T11:42:08.390Z,82.20
2022-07-27T11:44:40.934Z,84.80
2022-07-27T11:47:12.110Z,85.70
2022-07-27T11:49:41.782Z,84.70
2022-07-27T11:52:12.113Z,84.90
2022-07-27T11:54:43.231Z,88.30
2022-07-27T11:57:17.043Z,87.20
2022-07-27T11:59:47.373Z,84.10
2022-07-27T12:02:23.029Z,83.20
2022-07-27T12:04:57.777Z,84.30
2022-07-27T12:07:33.772Z,83.20
2022-07-27T12:10:07.225Z,83.20
2022-07-27T12:12:38.105Z,83.00
2022-07-27T12:17:57.779Z,82.30
2022-07-27T12:20:35.380Z,80.90
2022-07-27T12:23:07.883Z,82.70
2022-07-27T12:25:39.182Z,83.50
2022-07-27T12:28:14.253Z,82.20
2022-07-27T12:30:46.794Z,81.30
2022-07-27T12:33:36.170Z,81.90
2022-07-27T12:36:08.414Z,81.10
2022-07-27T12:38:46.358Z,81.90
2022-07-27T12:41:34.422Z,81.40
2022-07-27T12:44:12.222Z,80.40
2022-07-27T12:46:56.410Z,83.60
2022-07-27T12:49:28.876Z,83.20
2022-07-27T12:51:59.384Z,83.40
2022-07-27T12:54:28.872Z,83.00
2022-07-27T12:56:58.479Z,82.40
2022-07-27T12:59:28.087Z,82.00
2022-07-27T13:01:57.747Z,81.00
2022-07-27T13:04:27.753Z,85.10
2022-07-27T13:06:57.386Z,84.40
2022-07-27T13:10:03.317Z,82.20
2022-07-27T13:12:00.213Z,84.10
2022-07-27T13:14:29.386Z,82.20
2022-07-27T13:16:59.085Z,82.20
2022-07-27T13:19:28.880Z,82.10
2022-07-27T13:21:58.458Z,80.70
2022-07-27T13:24:28.452Z,82.00
2022-07-27T13:26:58.035Z,82.00
2022-07-27T13:29:28.543Z,82.10
2022-07-27T13:31:58.176Z,83.90
2022-07-27T13:34:27.879Z,83.40
2022-07-27T13:36:57.483Z,82.90
2022-07-27T13:39:27.097Z,81.40
2022-07-27T13:41:57.239Z,82.30
2022-07-27T13:44:58.335Z,84.50
2022-07-27T13:46:57.911Z,83.00
2022-07-27T13:49:27.431Z,82.20
2022-07-27T13:51:57.109Z,80.50
2022-07-27T13:54:26.618Z,81.00
2022-07-27T13:56:56.241Z,81.10
2022-07-27T13:59:25.942Z,81.30
2022-07-27T14:01:56.255Z,82.20
2022-07-27T14:04:25.999Z,81.70
2022-07-27T14:06:55.580Z,80.80
2022-07-27T14:09:26.776Z,82.60
2022-07-27T14:11:56.210Z,81.50
2022-07-27T14:14:27.045Z,82.00
2022-07-27T14:16:56.912Z,80.30
2022-07-27T14:19:26.432Z,81.40
2022-07-27T14:21:55.918Z,80.30
2022-07-27T14:24:25.350Z,82.60
2022-07-27T14:26:54.792Z,82.40
2022-07-27T14:29:24.975Z,82.30
2022-07-27T14:31:54.501Z,82.80
2022-07-27T14:34:24.056Z,81.40
2022-07-27T14:36:53.702Z,81.50
2022-07-27T14:39:23.142Z,81.20
2022-07-27T14:41:52.667Z,80.90
2022-07-27T14:44:22.310Z,81.00
2022-07-27T14:46:51.934Z,81.00
2022-07-27T14:49:22.787Z,80.70
2022-07-27T14:51:52.738Z,82.10
2022-07-27T14:54:22.224Z,81.30
2022-07-27T14:56:51.858Z,82.70
2022-07-27T14:59:21.311Z,83.60
2022-07-27T15:01:50.948Z,84.20
2022-07-27T15:04:20.624Z,84.40
2022-07-27T15:06:50.175Z,84.30
2022-07-27T15:09:19.685Z,83.10
2022-07-27T15:11:50.826Z,82.40
2022-07-27T15:14:23.444Z,82.50
2022-07-27T15:16:53.911Z,81.10
2022-07-27T15:19:24.072Z,81.40
2022-07-27T15:21:53.741Z,81.60
2022-07-27T15:24:23.337Z,82.40
2022-07-27T15:26:53.290Z,82.20
2022-07-27T15:29:22.829Z,82.30
2022-07-27T15:31:52.456Z,82.10
2022-07-27T15:34:22.055Z,81.90
2022-07-27T15:36:52.336Z,82.10
2022-07-27T15:39:23.181Z,82.80
2022-07-27T15:41:53.178Z,83.60
2022-07-27T15:44:23.003Z,84.10
2022-07-27T15:46:52.590Z,83.60
2022-07-27T15:49:22.496Z,83.90
2022-07-27T15:51:52.858Z,83.00
2022-07-27T15:54:24.413Z,83.80
2022-07-27T15:56:54.009Z,83.30
2022-07-27T15:59:23.566Z,83.40
2022-07-27T16:01:54.091Z,83.40
2022-07-27T16:04:23.850Z,83.70
2022-07-27T16:06:53.289Z,84.20
2022-07-27T16:09:23.599Z,84.20
2022-07-27T16:11:53.016Z,84.60
2022-07-27T16:14:22.493Z,84.80
2022-07-27T16:16:51.942Z,84.80
2022-07-27T16:19:21.525Z,84.50
2022-07-27T16:21:54.274Z,84.50
2022-07-27T16:24:23.767Z,84.70
2022-07-27T16:26:53.511Z,84.50
2022-07-27T16:29:23.227Z,84.30
2022-07-27T16:31:54.585Z,84.90
2022-07-27T16:34:26.003Z,83.90
2022-07-27T16:36:56.481Z,84.30
2022-07-27T16:39:27.576Z,84.40
2022-07-27T16:41:58.560Z,84.80
2022-07-27T16:44:28.265Z,84.70
2022-07-27T16:46:57.891Z,86.10
2022-07-27T16:49:36.782Z,86.80
2022-07-27T16:51:58.661Z,85.80
2022-07-27T16:54:28.239Z,85.70
2022-07-27T16:56:59.280Z,86.40
2022-07-27T16:59:28.921Z,86.10
2022-07-27T17:01:58.443Z,86.00
2022-07-27T17:04:28.166Z,86.30
2022-07-27T17:06:58.090Z,86.10
2022-07-27T17:09:28.274Z,86.50
2022-07-27T17:11:57.785Z,86.00
2022-07-27T17:14:28.736Z,85.70
2022-07-27T17:16:58.168Z,86.70
2022-07-27T17:19:27.716Z,86.10
2022-07-27T17:21:57.677Z,86.70
2022-07-27T17:24:27.203Z,86.70
2022-07-27T17:26:56.722Z,86.60
2022-07-27T17:29:27.216Z,87.50
2022-07-27T17:31:56.743Z,87.20
2022-07-27T17:34:26.711Z,87.20
2022-07-27T17:36:56.281Z,87.20
2022-07-27T17:39:25.920Z,87.50
2022-07-27T17:41:56.107Z,87.70
2022-07-27T17:44:26.177Z,87.70
2022-07-27T17:46:55.828Z,87.30
2022-07-27T17:49:25.639Z,88.10
2022-07-27T17:51:55.146Z,88.00
2022-07-27T17:54:26.369Z,88.10
2022-07-27T17:56:55.892Z,88.30
2022-07-27T17:59:37.481Z,88.40
2022-07-27T18:01:56.794Z,88.40
2022-07-27T18:04:27.548Z,88.70
2022-07-27T18:06:57.069Z,88.30
2022-07-27T18:09:26.775Z,88.40
2022-07-27T18:11:56.360Z,88.40
2022-07-27T18:14:26.012Z,88.50
2022-07-27T18:16:57.446Z,88.80
2022-07-27T18:19:27.026Z,88.90
2022-07-27T18:21:58.202Z,89.00
2022-07-27T18:24:29.035Z,89.30
2022-07-27T18:27:00.449Z,90.00
2022-07-27T18:29:30.025Z,90.10
2022-07-27T18:31:59.597Z,90.00
2022-07-27T18:34:29.146Z,89.90
2022-07-27T18:36:58.642Z,89.70
2022-07-27T18:39:33.724Z,90.00
2022-07-27T18:42:01.572Z,90.20
2022-07-27T18:44:38.832Z,90.40
2022-07-27T18:47:05.519Z,90.20
2022-07-27T18:49:36.709Z,90.80
2022-07-27T18:52:07.581Z,90.50
2022-07-27T18:54:37.746Z,90.60
2022-07-27T18:57:07.305Z,90.80
2022-07-27T18:59:41.174Z,90.80
2022-07-27T19:02:08.158Z,91.00
2022-07-27T19:04:38.068Z,91.30
2022-07-27T19:07:09.494Z,91.10
2022-07-27T19:09:39.398Z,91.10
2022-07-27T19:12:09.970Z,91.10
2022-07-27T19:14:39.853Z,91.20
2022-07-27T19:17:11.553Z,91.20
2022-07-27T19:19:40.532Z,91.20
2022-07-27T19:22:10.012Z,91.20
2022-07-27T19:24:39.725Z,91.30
2022-07-27T19:27:09.377Z,91.40
2022-07-27T19:29:38.966Z,91.50
2022-07-27T19:32:09.752Z,91.40
2022-07-27T19:34:40.455Z,91.40
2022-07-27T19:37:10.204Z,91.50
2022-07-27T19:39:59.845Z,91.60
2022-07-27T19:42:10.795Z,91.60
2022-07-27T19:44:41.721Z,91.70
2022-07-27T19:47:11.256Z,91.90
2022-07-27T19:49:40.961Z,92.10
2022-07-27T19:52:10.425Z,92.10
2022-07-27T19:54:39.953Z,92.10
2022-07-27T19:57:10.586Z,92.20
2022-07-27T19:59:54.937Z,92.20
2022-07-27T20:02:11.795Z,92.30
2022-07-27T20:04:41.473Z,92.40
2022-07-27T20:07:11.628Z,92.60
2022-07-27T20:09:41.240Z,92.70
2022-07-27T20:12:10.915Z,92.70
2022-07-27T20:14:40.437Z,92.80
2022-07-27T20:17:10.139Z,92.80
2022-07-27T20:19:40.140Z,92.90
2022-07-27T20:22:09.645Z,92.90
2022-07-27T20:24:39.159Z,93.00
2022-07-27T20:27:08.863Z,93.30
2022-07-27T20:29:38.369Z,93.30
2022-07-27T20:32:08.021Z,93.30
2022-07-27T20:34:38.033Z,93.20
2022-07-27T20:37:08.418Z,93.10
2022-07-27T20:39:38.128Z,93.30
2022-07-27T20:42:07.700Z,93.40
2022-07-27T20:44:37.344Z,93.30
2022-07-27T20:47:08.198Z,93.40
2022-07-27T20:49:37.832Z,93.30
2022-07-27T20:52:07.878Z,93.50
2022-07-27T20:54:38.570Z,93.50
2022-07-27T20:57:08.148Z,93.50
2022-07-27T20:59:37.646Z,93.30
2022-07-27T21:02:07.870Z,93.50
2022-07-27T21:04:38.501Z,93.60
2022-07-27T21:07:08.255Z,93.70
2022-07-27T21:09:37.775Z,93.80
2022-07-27T21:12:09.193Z,93.80
2022-07-27T21:14:38.773Z,93.80
2022-07-27T21:17:08.903Z,93.80
2022-07-27T21:19:39.023Z,94.10
2022-07-27T21:22:08.608Z,94.20
2022-07-27T21:24:38.039Z,94.20
2022-07-27T21:27:09.384Z,94.40
2022-07-27T21:29:39.012Z,94.40
2022-07-27T21:32:08.655Z,94.50
2022-07-27T21:34:38.150Z,94.70
2022-07-27T21:37:07.808Z,94.90
2022-07-27T21:39:37.458Z,94.80
2022-07-27T21:42:07.760Z,95.00
2022-07-27T21:44:37.888Z,95.20
2022-07-27T21:47:11.566Z,95.40
2022-07-27T21:49:38.709Z,95.40
2022-07-27T21:52:08.218Z,95.50
2022-07-27T21:54:38.358Z,95.40
2022-07-27T21:57:08.066Z,95.70
2022-07-27T21:59:37.597Z,95.60
2022-07-27T22:02:07.130Z,95.80
2022-07-27T22:04:36.855Z,96.10
2022-07-27T22:07:07.261Z,96.10
2022-07-27T22:09:44.090Z,96.20
2022-07-27T22:12:12.238Z,96.00
2022-07-27T22:14:41.834Z,96.10
2022-07-27T22:17:11.308Z,96.10
2022-07-27T22:19:41.602Z,96.10
2022-07-27T22:22:12.829Z,96.30
2022-07-27T22:24:42.645Z,96.30
2022-07-27T22:27:12.200Z,96.50
2022-07-27T22:29:41.815Z,96.80
2022-07-27T22:32:11.518Z,96.70
2022-07-27T22:34:41.190Z,96.70
2022-07-27T22:37:10.925Z,97.10
2022-07-27T22:39:42.156Z,97.20
2022-07-27T22:42:11.787Z,97.10
2022-07-27T22:44:42.404Z,97.00
2022-07-27T22:47:12.358Z,97.20
2022-07-27T22:49:41.982Z,96.70
2022-07-27T22:52:11.632Z,96.80
2022-07-27T22:54:42.000Z,96.80
2022-07-27T22:57:11.641Z,96.70
2022-07-27T22:59:41.307Z,96.80
2022-07-27T23:02:11.005Z,97.00
2022-07-27T23:04:40.656Z,97.00
2022-07-27T23:07:10.850Z,97.10
2022-07-27T23:09:40.981Z,97.20
2022-07-27T23:12:10.615Z,97.40
2022-07-27T23:14:40.169Z,97.60
2022-07-27T23:17:09.768Z,97.60
2022-07-27T23:19:39.415Z,97.70
2022-07-27T23:22:11.447Z,97.30
2022-07-27T23:24:41.112Z,97.70
2022-07-27T23:27:11.202Z,97.60
2022-07-27T23:29:40.936Z,97.60
2022-07-27T23:32:10.994Z,97.60
2022-07-27T23:34:40.548Z,97.70
2022-07-27T23:37:10.189Z,97.80
2022-07-27T23:39:39.797Z,97.80
2022-07-27T23:42:09.489Z,97.80
2022-07-27T23:44:39.220Z,98.20
2022-07-27T23:47:08.959Z,98.30
2022-07-27T23:49:40.546Z,98.70
2022-07-27T23:52:10.173Z,99.10
2022-07-27T23:54:39.854Z,99.30
2022-07-27T23:57:09.514Z,99.30
2022-07-27T23:59:39.244Z,99.20
